• Join FlightAware (Why Join?)
  • Login
  • US Flag 
04:42PM EDT


 

Airport Tracker/Info


-or-


 

Live Flight TrackerFlight Track Log ✈ QJE1948 ✈ 20-Sep-2013 ✈ YBAS / ASP - YBCS / CNS

Flight Track Log - Related Links

Times and Time Zones

All times are in EDT time to prevent confusion due to time zone crossing. See the QJE1948 flight status page for this flight to view local times or setup timezone preferences in your user account.

Time Position Orientation Groundspeed Altitude Reporting Facility
EDT Latitude Longitude Course Direction KTS MPH feet Rate Location/Type
04:17AM -23.8040 133.8990 90° East 105 121  Level FlightAware
04:17AM -23.8120 133.9130 122° Southeast 154 177 2,200 4,380 Climbing FlightAware
04:17AM -23.7927 133.8782 120° Southeast 2,900 2,400 Climbing Aus ATC (Calculated)
04:18AM -23.8180 133.9260 122° Southeast 154 177 3,000 480 Climbing FlightAware
04:18AM -23.8190 133.9290 110° East 154 177 3,100 1,260 Climbing FlightAware
04:18AM -23.8090 133.9450 56° Northeast 177 204 3,600 1,200 Climbing FlightAware
04:18AM -23.7990 133.9540 39° Northeast 200 230 3,900 1,320 Climbing FlightAware
04:18AM -23.7280 134.0007 208° Southwest 33,000 1,500 Climbing Aus ATC (Calculated)
04:19AM -23.7830 133.9690 41° Northeast 217 250 4,400 -48,180 Descending FlightAware
04:19AM -23.7660 133.9820 41° Northeast 234 269 4,900 1,800 Climbing FlightAware
04:19AM -23.7460 133.9940 29° Northeast 244 281 5,600 2,160 Climbing FlightAware
04:20AM -23.6632 134.1231 239° Southwest 33,000 2,220 Climbing Aus ATC (Calculated)
04:20AM -23.7300 134.0030 27° Northeast 251 289 6,200 -122,820 Descending FlightAware
04:20AM -23.7230 134.0080 27° Northeast 258 297 6,400 1,800 Climbing FlightAware
04:20AM -23.7170 134.0150 47° Northeast 267 307 6,600 1,800 Climbing FlightAware
04:20AM -23.7110 134.0230 51° Northeast 278 320 6,800 1,980 Climbing FlightAware
04:20AM -23.6990 134.0470 61° Northeast 290 334 7,500 2,400 Climbing FlightAware
04:21AM -23.6830 134.0790 61° Northeast 296 341 8,600 2,820 Climbing FlightAware
04:21AM -23.6710 134.1050 63° Northeast 301 346 9,600 2,520 Climbing FlightAware
04:21AM -23.5334 134.3675 240° Southwest 33,000 2,100 Climbing Aus ATC (Calculated)
04:22AM -23.6500 134.1460 61° Northeast 317 365 10,700 -28,500 Descending FlightAware
04:22AM -23.6220 134.2010 61° Northeast 339 390 12,100 2,280 Climbing FlightAware
04:23AM -23.4357 134.5504 240° Southwest 33,000 2,340 Climbing Aus ATC (Calculated)
04:23AM -23.5900 134.2600 59° Northeast 357 411 13,600 -31,080 Descending FlightAware
04:23AM -23.4357 134.5504 240° Southwest 33,000 2,280 Climbing Aus ATC (Calculated)
04:23AM -23.5620 134.3120 59° Northeast 367 422 14,900 -15,960 Descending FlightAware
04:24AM -23.5340 134.3660 59° Northeast 383 441 16,000 2,040 Climbing FlightAware
04:24AM -23.3379 134.7331 240° Southwest 33,000 2,100 Climbing Aus ATC (Calculated)
04:25AM -23.5000 134.4300 60° Northeast 396 456 17,300 -24,000 Descending FlightAware
04:25AM -23.4700 134.4860 60° Northeast 421 484 17,800 960 Climbing FlightAware
04:25AM -23.2725 134.8548 240° Southwest 33,000 1,020 Climbing Aus ATC (Calculated)
04:26AM -23.4310 134.5600 60° Northeast 450 518 18,500 -13,980 Descending FlightAware
04:26AM -23.3970 134.6230 60° Northeast 457 526 19,300 1,500 Climbing FlightAware
04:26AM -23.2071 134.9763 240° Southwest 33,000 1,500 Climbing Aus ATC (Calculated)
04:27AM -23.3590 134.6940 60° Northeast 464 534 20,200 -11,460 Descending FlightAware
04:27AM -23.1415 135.0977 240° Southwest 33,000 960 Climbing Aus ATC (Calculated)
04:27AM -23.3170 134.7720 60° Northeast 476 548 20,800 -16,440 Descending FlightAware
04:28AM -23.2780 134.8450 60° Northeast 481 554 21,500 900 Climbing FlightAware
04:28AM -23.1087 135.1584 240° Southwest 33,000 720 Climbing Aus ATC (Calculated)
04:29AM -23.2400 134.9150 59° Northeast 492 566 21,900 -10,080 Descending FlightAware
04:29AM -23.2000 134.9900 59° Northeast 492 566 22,800 1,560 Climbing FlightAware
04:30AM -23.1570 135.0690 59° Northeast 493 567 23,800 1,140 Climbing FlightAware
04:30AM -23.1200 135.1380 60° Northeast 504 580 24,100 600 Climbing FlightAware
04:31AM -23.0790 135.2140 60° Northeast 516 594 24,500 780 Climbing FlightAware
04:31AM -22.8784 135.5822 239° Southwest 33,000 900 Climbing Aus ATC (Calculated)
04:32AM -23.0320 135.3010 60° Northeast 524 603 25,100 -10,020 Descending FlightAware
04:32AM -22.9920 135.3740 60° Northeast 529 609 25,500 780 Climbing FlightAware
04:33AM -22.9490 135.4530 59° Northeast 531 611 26,000 780 Climbing FlightAware
04:33AM -22.7794 135.7635 239° Southwest 33,000 780 Climbing Aus ATC (Calculated)
04:33AM -22.9010 135.5410 59° Northeast 534 615 26,500 -8,040 Descending FlightAware
04:34AM -22.8610 135.6150 59° Northeast 535 616 27,000 780 Climbing FlightAware
04:34AM -22.6904 135.9255 239° Southwest 33,000 660 Climbing Aus ATC (Calculated)
04:34AM -22.8160 135.6970 59° Northeast 537 618 27,400 -6,000 Descending FlightAware
04:35AM -22.7710 135.7790 59° Northeast 538 619 27,800 660 Climbing FlightAware
04:35AM -22.6065 136.0780 239° Southwest 33,000 720 Climbing Aus ATC (Calculated)
04:36AM -22.7300 135.8530 59° Northeast 540 621 28,200 -5,760 Descending FlightAware
04:36AM -22.5784 136.1288 239° Southwest 33,000 780 Climbing Aus ATC (Calculated)
04:36AM -22.6840 135.9360 59° Northeast 539 620 28,700 -3,360 Descending FlightAware
04:37AM -22.6400 136.0160 59° Northeast 540 621 29,200 780 Climbing FlightAware
04:37AM -22.5910 136.1060 59° Northeast 539 620 29,700 600 Climbing FlightAware
04:38AM -22.5440 136.1910 59° Northeast 545 627 30,000 600 Climbing FlightAware
04:39AM -22.5030 136.2650 59° Northeast 545 627 30,400 960 Climbing FlightAware
04:39AM -22.3819 136.4836 239° Southwest 33,000 1,140 Climbing Aus ATC (Calculated)
04:39AM -22.3537 136.5342 239° Southwest 33,000 -3,180 Level Aus ATC (Calculated)
04:39AM -22.4560 136.3500 59° Northeast 539 620 31,100 -960 Descending FlightAware
04:40AM -22.4090 136.4350 59° Northeast 528 608 32,100 1,200 Climbing FlightAware
04:40AM -22.3640 136.5160 59° Northeast 525 604 32,600 360 Climbing FlightAware
04:41AM -22.3250 136.5870 59° Northeast 525 604 32,600  Level FlightAware
04:41AM -22.1651 136.8721 239° Southwest 33,000  Climbing Aus ATC (Calculated)
04:42AM -22.2860 136.6550 59° Northeast 525 604 32,600 -480 Descending FlightAware
04:42AM -22.1210 136.9508 239° Southwest 33,000  Climbing Aus ATC (Calculated)
04:42AM -22.2470 136.7260 59° Northeast 525 604 32,600 -420 Descending FlightAware
04:43AM -22.2090 136.7950 59° Northeast 525 604 32,600  Level FlightAware
04:43AM -22.1710 136.8640 59° Northeast 525 604 32,600  Level FlightAware
04:44AM -22.1340 136.9290 58° Northeast 525 604 32,600  Level FlightAware
04:45AM -22.0960 136.9980 59° Northeast 525 604 32,600  Level FlightAware
04:45AM -22.0580 137.0660 59° Northeast 525 604 32,600  Level FlightAware
04:46AM -22.0190 137.1350 59° Northeast 525 604 32,600  Level FlightAware
04:46AM -21.7664 137.5794 238° Southwest 33,000  Climbing Aus ATC (Calculated)
04:46AM -21.9810 137.2040 59° Northeast 525 604 32,600 -540 Descending FlightAware
04:47AM -21.9430 137.2720 59° Northeast 525 604 32,600  Level FlightAware
04:48AM -21.9050 137.3410 59° Northeast 525 604 32,600  Level FlightAware
04:48AM -21.8660 137.4100 59° Northeast 525 604 32,600  Level FlightAware
04:49AM -21.8280 137.4780 59° Northeast 525 604 32,600 360 Level FlightAware
04:49AM -21.6910 137.7110 58° Northeast 526 605 33,000 360 Climbing FlightAware
04:50AM -21.6490 137.7860 59° Northeast 526 605 33,000  Level FlightAware
04:50AM -21.6000 137.8720 59° Northeast 527 606 33,000  Level FlightAware
04:51AM -21.4162 138.1927 238° Southwest 33,000  Level Aus ATC (Calculated)
04:51AM -21.5530 137.9530 58° Northeast 528 608 33,000  Level FlightAware
04:52AM -21.5100 138.0280 58° Northeast 527 606 33,000  Level FlightAware
04:52AM -21.4660 138.1060 59° Northeast 528 608 33,000  Level FlightAware
04:53AM -21.4230 138.1800 58° Northeast 528 608 33,000  Level FlightAware
04:53AM -21.3820 138.2520 59° Northeast 528 608 33,000  Level FlightAware
04:54AM -21.3310 138.3410 58° Northeast 529 609 33,000  Level FlightAware
04:55AM -21.2870 138.4160 58° Northeast 529 609 33,000  Level FlightAware
04:55AM -21.2380 138.5020 59° Northeast 528 608 33,000  Level FlightAware
04:56AM -21.0417 138.8409 238° Southwest 33,000  Level Aus ATC (Calculated)
04:56AM -21.1980 138.5720 59° Northeast 528 608 33,000  Level FlightAware
04:56AM -21.1500 138.6540 59° Northeast 529 609 33,000  Level FlightAware
04:57AM -21.1070 138.7280 58° Northeast 530 610 33,000  Level FlightAware
04:57AM -21.0590 138.8100 58° Northeast 530 610 33,000  Level FlightAware
04:58AM -21.0160 138.8860 59° Northeast 529 609 33,000  Level FlightAware
04:59AM -20.9690 138.9650 58° Northeast 528 608 33,000  Level FlightAware
04:59AM -20.9220 139.0460 58° Northeast 528 608 33,000  Level FlightAware
05:00AM -20.8770 139.1240 58° Northeast 529 609 33,000  Level FlightAware
05:00AM -20.8290 139.2050 58° Northeast 529 609 33,000  Level FlightAware
05:01AM -20.6646 139.4858 238° Southwest 33,000  Level Aus ATC (Calculated)
05:01AM -20.7880 139.2750 58° Northeast 529 609 33,000  Level FlightAware
05:02AM -20.7410 139.3550 58° Northeast 527 606 33,000  Level FlightAware
05:02AM -20.6950 139.4340 58° Northeast 526 605 33,000  Level FlightAware
05:03AM -20.4925 139.7715 237° Southwest 33,000  Level Aus ATC (Calculated)
05:03AM -20.6510 139.5090 58° Northeast 524 603 33,000  Level FlightAware
05:03AM -20.6060 139.5830 58° Northeast 520 598 33,000  Level FlightAware
05:04AM -20.5590 139.6610 57° Northeast 519 597 33,000  Level FlightAware
05:04AM -20.5150 139.7340 57° Northeast 518 596 33,000  Level FlightAware
05:05AM -20.2854 140.1134 237° Southwest 33,000  Level Aus ATC (Calculated)
05:05AM -20.4660 139.8150 57° Northeast 520 598 33,000  Level FlightAware
05:06AM -20.4240 139.8840 57° Northeast 520 598 33,000  Level FlightAware
05:06AM -20.3770 139.9630 58° Northeast 520 598 33,000  Level FlightAware
05:07AM -20.3300 140.0390 57° Northeast 521 600 33,000  Level FlightAware
05:07AM -20.2880 140.1090 57° Northeast 522 601 33,000  Level FlightAware
05:07AM -20.1123 140.3977 237° Southwest 33,000  Level Aus ATC (Calculated)
05:08AM -20.2410 140.1860 57° Northeast 521 600 33,000  Level FlightAware
05:09AM -20.1940 140.2640 57° Northeast 520 598 33,000  Level FlightAware
05:09AM -20.1500 140.3360 57° Northeast 520 598 33,000  Level FlightAware
05:10AM -19.9460 140.6690 237° Southwest 33,000  Level Aus ATC (Calculated)
05:10AM -20.1040 140.4100 57° Northeast 519 597 33,000  Level FlightAware
05:10AM -20.0560 140.4890 57° Northeast 520 598 33,000  Level FlightAware
05:11AM -20.0140 140.5580 57° Northeast 521 600 33,000  Level FlightAware
05:11AM -19.8349 140.8495 237° Southwest 33,000  Level Aus ATC (Calculated)
05:11AM -19.9680 140.6330 57° Northeast 522 601 33,000  Level FlightAware
05:12AM -19.9190 140.7140 57° Northeast 523 602 33,000  Level FlightAware
05:12AM -19.7236 141.0298 237° Southwest 33,000  Level Aus ATC (Calculated)
05:13AM -19.8710 140.7910 56° Northeast 524 603 33,000  Level FlightAware
05:13AM -19.8280 140.8610 56° Northeast 525 604 33,000  Level FlightAware
05:14AM -19.7700 140.9540 56° Northeast 524 603 33,000  Level FlightAware
05:15AM -19.7210 141.0350 57° Northeast 523 602 33,000  Level FlightAware
05:15AM -19.6790 141.1020 56° Northeast 524 603 33,000  Level FlightAware
05:16AM -19.6320 141.1780 57° Northeast 523 602 33,000  Level FlightAware
05:16AM -19.4166 141.5243 237° Southwest 33,000  Level Aus ATC (Calculated)
05:16AM -19.5840 141.2530 56° Northeast 523 602 33,000  Level FlightAware
05:17AM -19.5280 141.3450 56° Northeast 524 603 33,000  Level FlightAware
05:18AM -19.4800 141.4220 57° Northeast 524 603 33,000  Level FlightAware
05:18AM -19.4330 141.4980 57° Northeast 522 601 33,000  Level FlightAware
05:19AM -19.3910 141.5660 57° Northeast 523 602 33,000  Level FlightAware
05:19AM -19.3410 141.6460 56° Northeast 523 602 33,000  Level FlightAware
05:20AM -19.2930 141.7220 56° Northeast 524 603 33,000  Level FlightAware
05:20AM -19.2460 141.7970 56° Northeast 523 602 33,000  Level FlightAware
05:21AM -19.0240 142.1511 236° Southwest 33,000  Level Aus ATC (Calculated)
05:21AM -19.2100 141.8550 57° Northeast 523 602 33,000  Level FlightAware
05:22AM -19.1680 141.9200 57° Northeast 523 602 33,000  Level FlightAware
05:22AM -19.1270 141.9850 56° Northeast 523 602 33,000  Level FlightAware
05:23AM -19.0850 142.0500 56° Northeast 523 602 33,000  Level FlightAware
05:23AM -19.0440 142.1150 56° Northeast 523 602 33,000  Level FlightAware
05:24AM -19.0030 142.1800 56° Northeast 523 602 33,000  Level FlightAware
05:25AM -18.9610 142.2450 56° Northeast 523 602 33,000  Level FlightAware
05:25AM -18.8675 142.3925 56° Northeast 526 605 33,000  Level Aus ATC (RADAR)
05:25AM -18.9190 142.3110 56° Northeast 523 602 33,000  Level FlightAware
05:26AM -18.8770 142.3760 56° Northeast 523 602 33,000  Level FlightAware
05:26AM -18.8360 142.4410 56° Northeast 523 602 33,000  Level FlightAware
05:27AM -18.7940 142.5060 56° Northeast 523 602 33,000  Level FlightAware
05:28AM -18.7520 142.5720 56° Northeast 523 602 33,000  Level FlightAware
05:28AM -18.7100 142.6370 56° Northeast 523 602 33,000  Level FlightAware
05:29AM -18.6690 142.7020 56° Northeast 523 602 33,000  Level FlightAware
05:29AM -18.6280 142.7670 56° Northeast 523 602 33,000  Level FlightAware
05:30AM -18.5860 142.8320 56° Northeast 523 602 33,000  Level FlightAware
05:31AM -18.4230 143.0958 56° Northeast 522 601 33,000  Level Aus ATC (RADAR)
05:31AM -18.3688 143.1804 56° Northeast 524 603 33,000  Level Aus ATC (RADAR)
05:32AM -18.3150 143.2645 56° Northeast 522 601 33,000  Level Aus ATC (RADAR)
05:33AM -18.2681 143.3382 56° Northeast 521 600 33,000  Level Aus ATC (RADAR)
05:33AM -18.2640 143.3460 56° Northeast 520 598 33,000  Level FlightAware
05:33AM -18.2210 143.4130 56° Northeast 520 598 33,000  Level FlightAware
05:34AM -18.1710 143.4910 56° Northeast 521 600 33,000  Level FlightAware
05:34AM -18.1263 143.5584 56° Northeast 522 601 33,000  Level Aus ATC (RADAR)
05:34AM -18.1290 143.5570 56° Northeast 522 601 33,000  Level FlightAware
05:35AM -18.0760 143.6380 55° Northeast 522 601 33,000  Level FlightAware
05:36AM -18.0260 143.7170 56° Northeast 522 601 33,000  Level FlightAware
05:36AM -17.9750 143.7940 55° Northeast 522 601 33,000  Level FlightAware
05:37AM -17.9270 143.8690 56° Northeast 523 602 33,000  Level FlightAware
05:37AM -17.8770 143.9460 56° Northeast 525 604 33,000  Level FlightAware
05:38AM -17.8270 144.0230 56° Northeast 523 602 33,000  Level FlightAware
05:39AM -17.7750 144.1040 56° Northeast 522 601 33,000  Level FlightAware
05:39AM -17.7320 144.1680 55° Northeast 522 601 33,000  Level FlightAware
05:40AM -17.6770 144.2540 56° Northeast 521 600 33,000  Level FlightAware
05:40AM -17.6310 144.3250 56° Northeast 521 600 33,000 -960 Level FlightAware
05:41AM -17.5830 144.3990 56° Northeast 518 596 31,900 -2,520 Descending FlightAware
05:42AM -17.5320 144.4760 55° Northeast 517 595 30,000 -2,820 Descending FlightAware
05:42AM -17.4970 144.5290 55° Northeast 517 595 28,700 -3,120 Descending FlightAware
05:43AM -17.4260 144.6390 56° Northeast 507 583 25,900 -3,120 Descending FlightAware
05:44AM -17.3790 144.7110 56° Northeast 487 560 24,400 -2,460 Descending FlightAware
05:44AM -17.3340 144.7800 56° Northeast 477 549 23,000 -2,280 Descending FlightAware
05:45AM -17.2960 144.8380 56° Northeast 479 551 21,900 -2,220 Descending FlightAware
05:45AM -17.2490 144.9090 55° Northeast 466 536 20,500 -2,220 Descending FlightAware
05:46AM -17.2110 144.9670 56° Northeast 446 513 19,200 -1,980 Descending FlightAware
05:46AM -17.1780 145.0180 56° Northeast 428 493 18,300 -2,220 Descending FlightAware
05:47AM -17.1317 145.0862 56° Northeast 420 483 16,800 -2,220 Descending Aus ATC (RADAR)
05:47AM -17.1370 145.0790 56° Northeast 423 487 17,000 -2,280 Climbing FlightAware
05:48AM -17.0932 145.1443 56° Northeast 412 474 15,500 -2,580 Descending Aus ATC (RADAR)
05:48AM -17.0800 145.1650 56° Northeast 403 464 15,100 -1,920 Descending FlightAware
05:48AM -17.0490 145.2130 56° Northeast 394 453 14,100 -2,160 Descending FlightAware
05:49AM -17.0110 145.2690 55° Northeast 379 436 12,700 -2,160 Descending FlightAware
05:49AM -16.9760 145.3240 56° Northeast 374 430 11,500 -1,500 Descending FlightAware
05:50AM -16.9393 145.3782 56° Northeast 347 399 10,900 -900 Descending Aus ATC (RADAR)
05:50AM -16.9380 145.3800 56° Northeast 333 383 10,900 -780 Level FlightAware
05:51AM -16.9000 145.4220 47° Northeast 316 364 10,400 -1,080 Descending FlightAware
05:51AM -16.8770 145.4350 28° Northeast 312 359 9,900 -1,620 Descending FlightAware
05:52AM -16.8420 145.4550 29° Northeast 311 358 9,200 -1,680 Descending FlightAware
05:52AM -16.8160 145.4700 29° Northeast 305 351 8,600 -1,620 Descending FlightAware
05:52AM -16.7910 145.4840 28° Northeast 300 345 8,100 -1,620 Descending FlightAware
05:53AM -16.7590 145.5020 28° Northeast 295 339 7,400 -1,500 Descending FlightAware
05:53AM -16.7280 145.5190 28° Northeast 290 334 6,800 -1,440 Descending FlightAware
05:53AM -16.7050 145.5320 28° Northeast 281 323 6,300 -1,200 Descending FlightAware
05:54AM -16.6840 145.5480 36° Northeast 263 303 6,000 -660 Descending FlightAware
05:54AM -16.6670 145.5660 45° Northeast 247 284 5,800 -660 Descending FlightAware
05:55AM -16.6490 145.5890 51° Northeast 228 262 5,500 -960 Descending FlightAware
05:55AM -16.6400 145.6120 68° East 219 252 5,100 -1,020 Descending FlightAware
05:55AM -16.6420 145.6200 105° East 218 251 5,000 -1,200 Descending FlightAware
05:55AM -16.6440 145.6250 113° Southeast 218 251 4,900 -1,200 Descending FlightAware
05:55AM -16.6460 145.6290 118° Southeast 218 251 4,800 -960 Descending FlightAware
05:56AM -16.6670 145.6530 132° Southeast 221 254 4,200 -1,200 Descending FlightAware
05:56AM -16.6940 145.6680 152° Southeast 223 257 3,600 -1,320 Descending FlightAware
05:57AM -16.7100 145.6740 160° South 225 259 3,300 -1,140 Descending FlightAware
05:57AM -16.7280 145.6820 157° South 227 261 2,900 -1,260 Descending FlightAware
05:57AM -16.7430 145.6880 159° South 220 253 2,600 -1,080 Descending FlightAware
05:57AM -16.7650 145.6980 156° South 199 229 2,200 -1,080 Descending FlightAware
05:58AM -16.7800 145.7050 156° South 184 212 1,800 -1,020 Descending FlightAware
05:58AM -16.7960 145.7120 157° South 148 170 1,500 -840 Descending FlightAware
05:59AM -16.8110 145.7190 156° South 144 166 1,200 -660 Descending FlightAware
05:59AM -16.8250 145.7250 158° South 144 166 1,000 -600 Descending FlightAware
05:59AM -16.8330 145.7290 154° Southeast 144 166 800 -360 Descending FlightAware
06:00AM -16.8520 145.7370 158° South 143 165 700 -540 Descending FlightAware
06:00AM -16.8750 145.7470 157° South 144 166 200 -840 Descending FlightAware
06:03AM -16.8858 145.7553 78° East  Level Estimated
06:04AM -16.8858 145.7553 78° East  Level Estimated
06:05AM -16.8858 145.7553 78° East  Level Estimated
06:06AM -16.8858 145.7553 78° East  Level Estimated